Airfield :
LOGIN :

Register | Disclaimer

   EN    FR    IT 

 










Legend :    VFR   Marginal VFR   IFR   Intensive IFR   Very Intensive IFR
Visi :
Ceiling :
>= 8 km
>= 3000ft
5 to 8 km
1000 to 3000 ft
1500m to 5 km
500 to 1000 ft
800 to 1500m
200 to 500 ft
< 800m
< 200 ft
Symbols :   Thunderstorms  Fog  Heavy snow  Heavy precipitations  Wind > 20 kt
SIGMETs :     Misc.  Thunderstorms  Icing  Turbulence  Mountain Waves  Volcanic Ashes







- Airport Elevation : 465 ft


ENFB - Statfjord B Platform

CURRENT METAR :
  • 231550Z AUTO 32022KT 9999NDV -SHRA SCT029/// BKN040/// BKN049/// 08/03 Q1013 W///S6

EXPIRED METARs :
  • 231520Z AUTO 33024KT 9999NDV -SHRA BKN024/// BKN066/// 07/02 Q1014 W///S6
  • 231450Z AUTO 33022KT 9999NDV BKN023/// 08/02 Q1013 W///S6
  • 231420Z AUTO 31020KT 9999NDV BKN027/// BKN057/// 09/04 Q1013 W///S6
  • 231350Z AUTO 33023KT 9999NDV BKN033/// 08/02 Q1013 W///S6
  • 231320Z AUTO 32019KT 9999NDV -SHRA BKN028/// 09/01 Q1012 W///S6

TAF N/A
No reported NOTAMs for that airfield.



MET'MAP, your aeronautical weather chart ! - Copyright ORBIFLY December 2007 - Disclaimer

ORBIFLY MET'MAP TEAM :

Programming & Development : Alexandra Zaïnal
Concept & Development : Baudouin d'Aumeries
Co-Development & Prog : Marc-Olivier Méhu
Technical & hardware support : Manuel Goepfert

Contact : metmap@orbifly.com




SOURCES & CREDITS :

   NOAA